CSAPA EDDS-EDSB
Flight info
| Callsign | CSAPA |
|---|---|
| Flight time | 0h 36m |
| Altitude | 2500 |
| Route | EDDS WROUTE WHISKEY A8HIGHWAY A5HIGHWAY ROMEO RROUTE EDSB |
| Aircraft | C152/L-V/N |
Departure
| Time | 2026-05-07 18:08 |
|---|---|
| Airport | Stuttgart Airport (EDDS) |
Arrival
| Time | 2026-05-07 18:44 |
|---|---|
| Airport | Karlsruhe Baden-Baden Airport (EDSB) |
| Time | Latitude | Longitude | Altitude | Speed | Heading |
|---|---|---|---|---|---|
| 2026-05-07 17:51 | 48.69254 | 9.21981 | 1280 ft | 0 kts | 167° |
| 2026-05-07 17:52 | 48.69253 | 9.21981 | 1279 ft | 0 kts | 167° |
| 2026-05-07 17:59 | 48.69252 | 9.21981 | 1279 ft | 0 kts | 167° |
| 2026-05-07 17:59 | 48.69232 | 9.21987 | 1279 ft | 3 kts | 198° |
| 2026-05-07 17:59 | 48.69225 | 9.21960 | 1279 ft | 7 kts | 253° |
| 2026-05-07 18:00 | 48.69201 | 9.21889 | 1279 ft | 5 kts | 197° |
| 2026-05-07 18:00 | 48.69171 | 9.21896 | 1279 ft | 3 kts | 165° |
| 2026-05-07 18:00 | 48.69161 | 9.21910 | 1279 ft | 3 kts | 78° |
| 2026-05-07 18:00 | 48.69171 | 9.21967 | 1279 ft | 4 kts | 75° |
| 2026-05-07 18:01 | 48.69175 | 9.21991 | 1279 ft | 5 kts | 75° |
| 2026-05-07 18:01 | 48.69193 | 9.22090 | 1279 ft | 12 kts | 75° |
| 2026-05-07 18:01 | 48.69215 | 9.22213 | 1279 ft | 9 kts | 74° |
| 2026-05-07 18:01 | 48.69230 | 9.22291 | 1279 ft | 8 kts | 74° |
| 2026-05-07 18:02 | 48.69210 | 9.22451 | 1279 ft | 9 kts | 153° |
| 2026-05-07 18:02 | 48.69203 | 9.22455 | 1279 ft | 0 kts | 165° |
| 2026-05-07 18:05 | 48.69200 | 9.22456 | 1279 ft | 2 kts | 165° |
| 2026-05-07 18:06 | 48.69173 | 9.22466 | 1279 ft | 7 kts | 166° |
| 2026-05-07 18:06 | 48.69107 | 9.22492 | 1279 ft | 12 kts | 166° |
| 2026-05-07 18:06 | 48.69044 | 9.22494 | 1279 ft | 4 kts | 256° |
| 2026-05-07 18:06 | 48.68990 | 9.22225 | 1280 ft | 54 kts | 253° |
| 2026-05-07 18:07 | 48.68867 | 9.21520 | 1374 ft | 74 kts | 257° |
| 2026-05-07 18:07 | 48.68768 | 9.20790 | 1587 ft | 71 kts | 259° |
| 2026-05-07 18:07 | 48.68704 | 9.20033 | 1763 ft | 74 kts | 268° |
| 2026-05-07 18:07 | 48.68733 | 9.19167 | 1854 ft | 88 kts | 276° |
| 2026-05-07 18:08 | 48.68801 | 9.18255 | 2059 ft | 85 kts | 279° |
| 2026-05-07 18:08 | 48.68943 | 9.17378 | 2205 ft | 90 kts | 297° |
| 2026-05-07 18:08 | 48.69357 | 9.16677 | 2328 ft | 88 kts | 323° |
| 2026-05-07 18:08 | 48.69836 | 9.16112 | 2424 ft | 87 kts | 320° |
| 2026-05-07 18:09 | 48.70277 | 9.15476 | 2495 ft | 87 kts | 314° |
| 2026-05-07 18:09 | 48.70650 | 9.14758 | 2539 ft | 88 kts | 302° |
| 2026-05-07 18:09 | 48.70884 | 9.13893 | 2575 ft | 89 kts | 287° |
| 2026-05-07 18:09 | 48.70986 | 9.12958 | 2535 ft | 90 kts | 279° |
| 2026-05-07 18:10 | 48.71062 | 9.12000 | 2469 ft | 92 kts | 279° |
| 2026-05-07 18:10 | 48.71141 | 9.11042 | 2432 ft | 91 kts | 279° |
| 2026-05-07 18:10 | 48.71245 | 9.10086 | 2408 ft | 94 kts | 288° |
| 2026-05-07 18:10 | 48.71509 | 9.09190 | 2443 ft | 92 kts | 301° |
| 2026-05-07 18:11 | 48.71816 | 9.08350 | 2451 ft | 93 kts | 301° |
| 2026-05-07 18:11 | 48.72025 | 9.07767 | 2426 ft | 94 kts | 299° |
| 2026-05-07 18:11 | 48.72464 | 9.06607 | 2368 ft | 98 kts | 299° |
| 2026-05-07 18:11 | 48.72745 | 9.05683 | 2365 ft | 97 kts | 295° |
| 2026-05-07 18:12 | 48.73014 | 9.04740 | 2392 ft | 98 kts | 295° |
| 2026-05-07 18:12 | 48.73316 | 9.03818 | 2441 ft | 97 kts | 300° |
| 2026-05-07 18:12 | 48.73670 | 9.02944 | 2473 ft | 98 kts | 307° |
| 2026-05-07 18:12 | 48.74174 | 9.02235 | 2477 ft | 98 kts | 322° |
| 2026-05-07 18:13 | 48.74702 | 9.01600 | 2505 ft | 97 kts | 322° |
| 2026-05-07 18:13 | 48.75238 | 9.00955 | 2497 ft | 98 kts | 322° |
| 2026-05-07 18:13 | 48.75769 | 9.00311 | 2514 ft | 98 kts | 322° |
| 2026-05-07 18:13 | 48.76299 | 8.99653 | 2511 ft | 99 kts | 321° |
| 2026-05-07 18:14 | 48.76821 | 8.98987 | 2525 ft | 98 kts | 320° |
| 2026-05-07 18:14 | 48.77335 | 8.98306 | 2530 ft | 98 kts | 319° |
| 2026-05-07 18:14 | 48.77843 | 8.97607 | 2538 ft | 98 kts | 318° |
| 2026-05-07 18:14 | 48.78332 | 8.96903 | 2543 ft | 98 kts | 317° |
| 2026-05-07 18:15 | 48.78818 | 8.96170 | 2543 ft | 99 kts | 315° |
| 2026-05-07 18:15 | 48.79292 | 8.95418 | 2557 ft | 98 kts | 314° |
| 2026-05-07 18:15 | 48.79756 | 8.94642 | 2548 ft | 99 kts | 313° |
| 2026-05-07 18:15 | 48.80207 | 8.93848 | 2554 ft | 99 kts | 311° |
| 2026-05-07 18:16 | 48.80645 | 8.93039 | 2551 ft | 99 kts | 310° |
| 2026-05-07 18:16 | 48.81075 | 8.92219 | 2555 ft | 99 kts | 309° |
| 2026-05-07 18:16 | 48.81497 | 8.91386 | 2554 ft | 99 kts | 308° |
| 2026-05-07 18:16 | 48.81882 | 8.90529 | 2551 ft | 100 kts | 301° |
| 2026-05-07 18:17 | 48.82186 | 8.89578 | 2548 ft | 100 kts | 295° |
| 2026-05-07 18:17 | 48.82480 | 8.88619 | 2527 ft | 101 kts | 298° |
| 2026-05-07 18:17 | 48.82800 | 8.87672 | 2521 ft | 100 kts | 300° |
| 2026-05-07 18:17 | 48.83138 | 8.86747 | 2508 ft | 100 kts | 303° |
| 2026-05-07 18:18 | 48.83496 | 8.85843 | 2500 ft | 100 kts | 301° |
| 2026-05-07 18:18 | 48.83809 | 8.84904 | 2491 ft | 100 kts | 296° |
| 2026-05-07 18:18 | 48.84071 | 8.83921 | 2476 ft | 101 kts | 293° |
| 2026-05-07 18:18 | 48.84329 | 8.82936 | 2462 ft | 100 kts | 295° |
| 2026-05-07 18:19 | 48.84639 | 8.82000 | 2442 ft | 101 kts | 301° |
| 2026-05-07 18:19 | 48.85011 | 8.81101 | 2432 ft | 100 kts | 306° |
| 2026-05-07 18:19 | 48.85424 | 8.80253 | 2417 ft | 100 kts | 311° |
| 2026-05-07 18:19 | 48.85973 | 8.79629 | 2396 ft | 100 kts | 335° |
| 2026-05-07 18:20 | 48.86627 | 8.79320 | 2427 ft | 96 kts | 344° |
| 2026-05-07 18:20 | 48.87272 | 8.79063 | 2442 ft | 96 kts | 345° |
| 2026-05-07 18:20 | 48.87930 | 8.78826 | 2435 ft | 97 kts | 346° |
| 2026-05-07 18:20 | 48.88588 | 8.78608 | 2449 ft | 97 kts | 347° |
| 2026-05-07 18:21 | 48.89231 | 8.78358 | 2456 ft | 96 kts | 341° |
| 2026-05-07 18:21 | 48.89850 | 8.77974 | 2461 ft | 96 kts | 334° |
| 2026-05-07 18:21 | 48.90436 | 8.77474 | 2467 ft | 96 kts | 328° |
| 2026-05-07 18:21 | 48.90985 | 8.76891 | 2472 ft | 96 kts | 323° |
| 2026-05-07 18:22 | 48.91510 | 8.76252 | 2476 ft | 97 kts | 320° |
| 2026-05-07 18:22 | 48.91844 | 8.75803 | 2480 ft | 97 kts | 318° |
| 2026-05-07 18:22 | 48.92378 | 8.74706 | 2461 ft | 100 kts | 291° |
| 2026-05-07 18:22 | 48.92442 | 8.73657 | 2468 ft | 101 kts | 266° |
| 2026-05-07 18:23 | 48.92247 | 8.72632 | 2473 ft | 102 kts | 252° |
| 2026-05-07 18:23 | 48.91969 | 8.71639 | 2479 ft | 102 kts | 249° |
| 2026-05-07 18:23 | 48.91670 | 8.70672 | 2479 ft | 102 kts | 249° |
| 2026-05-07 18:23 | 48.91377 | 8.69669 | 2481 ft | 102 kts | 250° |
| 2026-05-07 18:24 | 48.91106 | 8.68690 | 2485 ft | 102 kts | 251° |
| 2026-05-07 18:24 | 48.90852 | 8.67683 | 2483 ft | 102 kts | 254° |
| 2026-05-07 18:24 | 48.90630 | 8.66660 | 2487 ft | 101 kts | 257° |
| 2026-05-07 18:24 | 48.90467 | 8.65623 | 2480 ft | 101 kts | 265° |
| 2026-05-07 18:25 | 48.90484 | 8.64558 | 2451 ft | 101 kts | 282° |
| 2026-05-07 18:25 | 48.90687 | 8.63558 | 2461 ft | 98 kts | 296° |
| 2026-05-07 18:25 | 48.91029 | 8.62666 | 2451 ft | 98 kts | 307° |
| 2026-05-07 18:25 | 48.91422 | 8.61831 | 2466 ft | 96 kts | 307° |
| 2026-05-07 18:26 | 48.91818 | 8.61002 | 2463 ft | 97 kts | 306° |
| 2026-05-07 18:26 | 48.92175 | 8.60135 | 2473 ft | 97 kts | 301° |
| 2026-05-07 18:26 | 48.92489 | 8.59225 | 2470 ft | 98 kts | 298° |
| 2026-05-07 18:26 | 48.92773 | 8.58286 | 2474 ft | 97 kts | 295° |
| 2026-05-07 18:27 | 48.93022 | 8.57340 | 2475 ft | 98 kts | 292° |
| 2026-05-07 18:27 | 48.93245 | 8.56359 | 2476 ft | 98 kts | 289° |
| 2026-05-07 18:27 | 48.93408 | 8.55352 | 2480 ft | 98 kts | 285° |
| 2026-05-07 18:27 | 48.93512 | 8.54679 | 2475 ft | 99 kts | 287° |
| 2026-05-07 18:28 | 48.93749 | 8.53332 | 2478 ft | 98 kts | 288° |
| 2026-05-07 18:28 | 48.93942 | 8.52335 | 2476 ft | 98 kts | 289° |
| 2026-05-07 18:28 | 48.94142 | 8.51342 | 2477 ft | 98 kts | 290° |
| 2026-05-07 18:28 | 48.94349 | 8.50352 | 2477 ft | 98 kts | 290° |
| 2026-05-07 18:29 | 48.94557 | 8.49365 | 2477 ft | 98 kts | 290° |
| 2026-05-07 18:29 | 48.94763 | 8.48376 | 2477 ft | 98 kts | 290° |
| 2026-05-07 18:29 | 48.94965 | 8.47382 | 2477 ft | 98 kts | 289° |
| 2026-05-07 18:29 | 48.95159 | 8.46388 | 2477 ft | 98 kts | 289° |
| 2026-05-07 18:30 | 48.95342 | 8.45396 | 2476 ft | 98 kts | 288° |
| 2026-05-07 18:30 | 48.95516 | 8.44388 | 2476 ft | 98 kts | 287° |
| 2026-05-07 18:30 | 48.95628 | 8.43357 | 2477 ft | 99 kts | 277° |
| 2026-05-07 18:30 | 48.95610 | 8.42304 | 2477 ft | 100 kts | 267° |
| 2026-05-07 18:31 | 48.95480 | 8.41257 | 2477 ft | 101 kts | 259° |
| 2026-05-07 18:31 | 48.95276 | 8.40229 | 2476 ft | 102 kts | 255° |
| 2026-05-07 18:31 | 48.95026 | 8.39218 | 2479 ft | 102 kts | 251° |
| 2026-05-07 18:31 | 48.94711 | 8.38246 | 2481 ft | 103 kts | 244° |
| 2026-05-07 18:32 | 48.94306 | 8.37341 | 2482 ft | 104 kts | 235° |
| 2026-05-07 18:32 | 48.93808 | 8.36538 | 2483 ft | 105 kts | 225° |
| 2026-05-07 18:32 | 48.93242 | 8.35824 | 2484 ft | 106 kts | 221° |
| 2026-05-07 18:32 | 48.92658 | 8.35177 | 2476 ft | 104 kts | 219° |
| 2026-05-07 18:33 | 48.92070 | 8.34499 | 2352 ft | 107 kts | 221° |
| 2026-05-07 18:33 | 48.91493 | 8.33796 | 2263 ft | 104 kts | 222° |
| 2026-05-07 18:33 | 48.90944 | 8.33097 | 2141 ft | 105 kts | 224° |
| 2026-05-07 18:33 | 48.90416 | 8.32330 | 2036 ft | 104 kts | 230° |
| 2026-05-07 18:34 | 48.89938 | 8.31500 | 1937 ft | 103 kts | 232° |
| 2026-05-07 18:34 | 48.89491 | 8.30651 | 1844 ft | 102 kts | 236° |
| 2026-05-07 18:34 | 48.89084 | 8.29781 | 1764 ft | 101 kts | 237° |
| 2026-05-07 18:34 | 48.88690 | 8.28907 | 1672 ft | 102 kts | 239° |
| 2026-05-07 18:35 | 48.88302 | 8.28012 | 1594 ft | 101 kts | 237° |
| 2026-05-07 18:35 | 48.87891 | 8.27134 | 1536 ft | 102 kts | 237° |
| 2026-05-07 18:35 | 48.87432 | 8.26284 | 1447 ft | 108 kts | 227° |
| 2026-05-07 18:35 | 48.86881 | 8.25506 | 1434 ft | 108 kts | 221° |
| 2026-05-07 18:36 | 48.86299 | 8.24799 | 1432 ft | 107 kts | 219° |
| 2026-05-07 18:36 | 48.85694 | 8.24118 | 1422 ft | 106 kts | 217° |
| 2026-05-07 18:36 | 48.85106 | 8.23469 | 1466 ft | 104 kts | 217° |
| 2026-05-07 18:36 | 48.84519 | 8.22828 | 1477 ft | 104 kts | 217° |
| 2026-05-07 18:37 | 48.83933 | 8.22187 | 1510 ft | 103 kts | 218° |
| 2026-05-07 18:37 | 48.83375 | 8.21499 | 1517 ft | 104 kts | 225° |
| 2026-05-07 18:37 | 48.83049 | 8.20967 | 1528 ft | 104 kts | 232° |
| 2026-05-07 18:37 | 48.82482 | 8.19821 | 1570 ft | 102 kts | 236° |
| 2026-05-07 18:38 | 48.82199 | 8.19218 | 1551 ft | 105 kts | 237° |
| 2026-05-07 18:38 | 48.81662 | 8.17991 | 1533 ft | 106 kts | 238° |
| 2026-05-07 18:38 | 48.81264 | 8.17047 | 1517 ft | 106 kts | 240° |
| 2026-05-07 18:38 | 48.80873 | 8.16092 | 1502 ft | 107 kts | 239° |
| 2026-05-07 18:39 | 48.80591 | 8.15467 | 1499 ft | 106 kts | 236° |
| 2026-05-07 18:39 | 48.80153 | 8.14559 | 1482 ft | 107 kts | 235° |
| 2026-05-07 18:39 | 48.79712 | 8.13654 | 1471 ft | 107 kts | 234° |
| 2026-05-07 18:39 | 48.79223 | 8.12827 | 1458 ft | 107 kts | 224° |
| 2026-05-07 18:40 | 48.78619 | 8.12156 | 1440 ft | 108 kts | 214° |
| 2026-05-07 18:40 | 48.77987 | 8.11546 | 1429 ft | 108 kts | 213° |
| 2026-05-07 18:40 | 48.77349 | 8.10953 | 1423 ft | 107 kts | 212° |
| 2026-05-07 18:40 | 48.76719 | 8.10355 | 1416 ft | 107 kts | 213° |
| 2026-05-07 18:41 | 48.76089 | 8.09758 | 1438 ft | 103 kts | 213° |
| 2026-05-07 18:41 | 48.75494 | 8.09213 | 1461 ft | 98 kts | 212° |
| 2026-05-07 18:41 | 48.74913 | 8.08680 | 1469 ft | 98 kts | 213° |
| 2026-05-07 18:41 | 48.74340 | 8.08139 | 1461 ft | 95 kts | 214° |
| 2026-05-07 18:42 | 48.73921 | 8.07431 | 1421 ft | 88 kts | 249° |
| 2026-05-07 18:42 | 48.73893 | 8.06559 | 1297 ft | 80 kts | 289° |
| 2026-05-07 18:42 | 48.74173 | 8.05904 | 1154 ft | 75 kts | 310° |
| 2026-05-07 18:42 | 48.74574 | 8.05413 | 1053 ft | 74 kts | 340° |
| 2026-05-07 18:43 | 48.75087 | 8.05447 | 930 ft | 76 kts | 18° |
| 2026-05-07 18:43 | 48.75557 | 8.05788 | 825 ft | 73 kts | 32° |
| 2026-05-07 18:43 | 48.75981 | 8.06220 | 727 ft | 75 kts | 29° |
| 2026-05-07 18:43 | 48.76420 | 8.06600 | 622 ft | 73 kts | 22° |
| 2026-05-07 18:44 | 48.76828 | 8.07004 | 468 ft | 66 kts | 35° |
| 2026-05-07 18:44 | 48.77191 | 8.07348 | 412 ft | 54 kts | 32° |
| 2026-05-07 18:44 | 48.77452 | 8.07595 | 411 ft | 36 kts | 32° |
| 2026-05-07 18:44 | 48.77630 | 8.07762 | 411 ft | 27 kts | 31° |
| 2026-05-07 18:45 | 48.77790 | 8.07905 | 411 ft | 28 kts | 30° |
| 2026-05-07 18:45 | 48.77928 | 8.08052 | 411 ft | 17 kts | 77° |
| 2026-05-07 18:45 | 48.77910 | 8.08134 | 411 ft | 0 kts | 120° |
| 2026-05-07 18:45 | 48.77899 | 8.08162 | 411 ft | 5 kts | 121° |
| 2026-05-07 18:46 | 48.77885 | 8.08198 | 411 ft | 5 kts | 121° |
| 2026-05-07 18:46 | 48.77858 | 8.08223 | 411 ft | 0 kts | 216° |
| 2026-05-07 18:46 | 48.77840 | 8.08204 | 411 ft | 7 kts | 212° |
| 2026-05-07 18:46 | 48.77828 | 8.08194 | 411 ft | 0 kts | 211° |
| 2026-05-07 18:47 | 48.77805 | 8.08213 | 411 ft | 8 kts | 103° |
| 2026-05-07 18:47 | 48.77790 | 8.08300 | 411 ft | 3 kts | 117° |
| 2026-05-07 18:47 | 48.77772 | 8.08344 | 411 ft | 7 kts | 120° |
| 2026-05-07 18:47 | 48.77747 | 8.08376 | 411 ft | 3 kts | 201° |
| 2026-05-07 18:48 | 48.77713 | 8.08347 | 411 ft | 7 kts | 209° |
| 2026-05-07 18:48 | 48.77678 | 8.08317 | 411 ft | 4 kts | 210° |
| 2026-05-07 18:48 | 48.77634 | 8.08278 | 411 ft | 10 kts | 210° |
| 2026-05-07 18:48 | 48.77568 | 8.08219 | 411 ft | 11 kts | 211° |
| 2026-05-07 18:49 | 48.77512 | 8.08166 | 411 ft | 9 kts | 212° |
| 2026-05-07 18:49 | 48.77462 | 8.08118 | 411 ft | 7 kts | 212° |
| 2026-05-07 18:49 | 48.77408 | 8.08068 | 411 ft | 11 kts | 212° |
| 2026-05-07 18:49 | 48.77350 | 8.08014 | 411 ft | 8 kts | 211° |
| 2026-05-07 18:50 | 48.77290 | 8.07964 | 411 ft | 11 kts | 206° |
| 2026-05-07 18:50 | 48.77237 | 8.07924 | 411 ft | 9 kts | 206° |
| 2026-05-07 18:50 | 48.77187 | 8.07874 | 411 ft | 7 kts | 223° |
| 2026-05-07 18:50 | 48.77157 | 8.07833 | 411 ft | 3 kts | 212° |
| 2026-05-07 18:51 | 48.77107 | 8.07831 | 411 ft | 8 kts | 178° |
| 2026-05-07 18:51 | 48.77051 | 8.07830 | 411 ft | 8 kts | 181° |
| 2026-05-07 18:51 | 48.77027 | 8.07829 | 411 ft | 0 kts | 181° |
| 2026-05-07 18:51 | 48.77003 | 8.07825 | 411 ft | 5 kts | 202° |
| 2026-05-07 18:52 | 48.76990 | 8.07813 | 411 ft | 2 kts | 213° |
| 2026-05-07 18:52 | 48.76962 | 8.07783 | 411 ft | 5 kts | 220° |
| 2026-05-07 18:52 | 48.76953 | 8.07752 | 411 ft | 10 kts | 231° |
| 2026-05-07 18:52 | 48.76882 | 8.07778 | 411 ft | 3 kts | 126° |
| 2026-05-07 18:53 | 48.76882 | 8.07779 | 411 ft | 0 kts | 123° |